Houston, Texas
Current Conditions -  °F | °C
As of 1:15 AM on Saturday 29 Nov 2014 (Local Time) from KMCJ Reporting Station
Clear Clear  
Wind Chill: 61°   Ceiling: Unl
Heat Index: 61°   Visibility: 10mi
Dew Point: 57°   Wind: 6mph
Humidity: 88%   Direction: 180°S
Pressure: 30.08"   Gusts: NA
Location:  29.76°N, 95.37°W
Report Text: KMCJ 290715Z AUTO 18005KT 10SM CLR 16/14 A3008 RMK AO1
Loading
Personal Weather Stations






























Interactive Weather Map New forecast layout! Learn more

10-Day Weather Forecast

Advertisements
Track Severe Weather on mobile